Time;durP1;ratioP1;P1;durP2;ratioP2;P2;SDS_P1;SDS_P2;PMS_P1;PMS_P2;Temp;Humidity;BMP_temperature;BMP_pressure;BME280_temperature;BME280_humidity;BME280_pressure;Samples;Min_cycle;Max_cycle;Signal;HPM_P1;HPM_P2
2022/04/22 03:00:50;;;;;;;23.60;21.53;;;5.00;99.90;;;;;;5683181;23;20262;-78
2022/04/22 03:03:16;;;;;;;22.33;20.33;;;5.00;99.90;;;;;;4958577;29;20186;-79
2022/04/22 03:05:42;;;;;;;23.57;21.53;;;4.90;99.90;;;;;;4955843;29;20185;-78
2022/04/22 03:08:08;;;;;;;24.50;22.53;;;5.00;99.90;;;;;;4955220;28;20192;-78
2022/04/22 03:10:34;;;;;;;22.17;20.27;;;4.90;99.90;;;;;;4954906;29;20202;-79
2022/04/22 03:13:00;;;;;;;26.10;23.63;;;4.90;99.90;;;;;;4954336;29;20185;-79
2022/04/22 03:15:26;;;;;;;22.10;20.20;;;4.90;99.90;;;;;;4953161;23;20316;-75
2022/04/22 03:17:52;;;;;;;23.43;21.27;;;4.80;99.90;;;;;;4938146;29;20536;-75
2022/04/22 03:20:18;;;;;;;22.87;20.57;;;4.90;99.90;;;;;;4938917;29;20213;-75
2022/04/22 03:22:44;;;;;;;22.70;20.47;;;4.80;99.90;;;;;;4935140;29;20242;-75
2022/04/22 03:25:10;;;;;;;23.20;20.83;;;4.80;99.90;;;;;;4939801;29;20550;-77
2022/04/22 03:27:36;;;;;;;22.33;20.37;;;4.70;99.90;;;;;;4938572;29;20183;-75
2022/04/22 03:30:03;;;;;;;26.17;24.07;;;4.70;99.90;;;;;;4934700;29;20245;-75
2022/04/22 03:32:30;;;;;;;22.40;20.23;;;4.60;99.90;;;;;;4934908;29;20182;-76
2022/04/22 03:34:55;;;;;;;26.40;22.17;;;4.60;99.90;;;;;;4934185;29;20202;-75
2022/04/22 03:37:21;;;;;;;27.57;24.97;;;4.60;99.90;;;;;;4935030;29;20257;-77
2022/04/22 03:39:47;;;;;;;23.40;21.10;;;4.50;99.90;;;;;;4935089;29;20629;-75
2022/04/22 03:42:13;;;;;;;22.23;20.03;;;4.50;99.90;;;;;;4935336;29;20182;-75
2022/04/22 03:44:39;;;;;;;22.33;20.17;;;4.50;99.90;;;;;;4935382;29;20198;-76
2022/04/22 03:47:07;;;;;;;23.10;20.90;;;4.40;99.90;;;;;;4935218;29;20505;-75
2022/04/22 03:49:33;;;;;;;30.07;27.33;;;4.40;99.90;;;;;;4935123;29;20186;-75
2022/04/22 03:51:59;;;;;;;22.73;20.73;;;4.40;99.90;;;;;;4933716;29;20218;-76
2022/04/22 03:54:25;;;;;;;21.53;19.33;;;4.40;99.90;;;;;;4935103;29;20316;-75
2022/04/22 03:59:36;;;;;;;27.00;24.43;;;4.30;99.90;;;;;;4932257;28;20649;-75
2022/04/22 04:02:03;;;;;;;26.27;23.63;;;4.40;99.90;;;;;;4941672;29;20178;-75
2022/04/22 04:04:29;;;;;;;20.93;18.73;;;4.50;99.90;;;;;;4951750;28;20276;-75
2022/04/22 04:06:55;;;;;;;25.77;23.17;;;4.40;99.90;;;;;;4940590;29;20302;-76
2022/04/22 04:17:40;;;;;;;26.17;23.57;;;4.40;99.90;;;;;;4933860;29;20232;-75
2022/04/22 04:25:35;;;;;;;28.57;25.87;;;4.30;99.90;;;;;;4934080;29;20206;-76
2022/04/22 04:28:02;;;;;;;27.37;24.33;;;4.40;99.90;;;;;;4934104;29;20223;-75
2022/04/22 04:30:28;;;;;;;26.47;23.77;;;4.40;99.90;;;;;;4934245;29;20186;-76
2022/04/22 04:32:54;;;;;;;28.87;25.17;;;4.50;99.90;;;;;;4934253;29;20183;-75
2022/04/22 04:35:20;;;;;;;27.93;25.23;;;4.40;99.90;;;;;;4925300;29;20860;-76
2022/04/22 04:37:45;;;;;;;28.73;23.00;;;4.50;99.90;;;;;;4923289;29;20269;-76
2022/04/22 04:40:11;;;;;;;27.83;24.77;;;4.50;99.90;;;;;;4932442;29;20218;-72
2022/04/22 04:42:37;;;;;;;33.40;30.27;;;4.50;99.90;;;;;;4934110;29;20206;-72
2022/04/22 04:45:04;;;;;;;37.23;34.07;;;4.60;99.90;;;;;;4926659;29;20214;-72
2022/04/22 04:47:31;;;;;;;34.27;30.73;;;4.60;99.90;;;;;;4912800;29;20194;-72
2022/04/22 04:49:56;;;;;;;33.70;30.50;;;4.70;99.90;;;;;;4915433;29;20868;-72
2022/04/22 04:52:22;;;;;;;50.73;46.83;;;4.70;99.90;;;;;;4933562;29;20190;-72
2022/04/22 04:54:50;;;;;;;47.30;43.43;;;4.70;99.90;;;;;;4933143;29;20697;-72
2022/04/22 04:57:15;;;;;;;35.13;32.00;;;4.80;99.90;;;;;;4933469;29;20186;-72
2022/04/22 04:59:42;;;;;;;43.97;40.37;;;4.80;99.90;;;;;;4933275;29;20213;-71
2022/04/22 05:02:07;;;;;;;29.63;26.77;;;4.80;99.90;;;;;;4932033;29;20190;-71
2022/04/22 05:04:33;;;;;;;28.07;20.83;;;5.00;99.90;;;;;;4933454;29;20210;-71
2022/04/22 05:06:59;;;;;;;24.37;20.03;;;5.10;99.90;;;;;;4931854;29;20555;-71
2022/04/22 05:09:25;;;;;;;27.30;22.73;;;5.20;99.90;;;;;;4933300;29;20182;-71
2022/04/22 05:11:51;;;;;;;33.73;30.33;;;5.30;99.90;;;;;;4933185;29;20193;-71
2022/04/22 05:14:18;;;;;;;25.77;20.40;;;5.50;99.90;;;;;;4933136;29;20218;-71
2022/04/22 05:16:43;;;;;;;27.97;21.90;;;5.70;99.90;;;;;;4931822;29;20276;-71
2022/04/22 05:19:09;;;;;;;63.87;58.87;;;6.00;99.90;;;;;;4932960;29;20357;-71
2022/04/22 05:21:35;;;;;;;61.20;56.60;;;6.30;99.90;;;;;;4932598;29;20222;-71
2022/04/22 05:24:01;;;;;;;40.27;36.90;;;6.70;99.90;;;;;;4933508;29;20248;-71
2022/04/22 05:26:26;;;;;;;54.40;50.27;;;6.90;99.90;;;;;;4932200;29;20643;-71
2022/04/22 05:28:52;;;;;;;23.47;19.83;;;7.20;99.90;;;;;;4932911;29;20273;-71
2022/04/22 05:34:02;;;;;;;26.87;19.43;;;7.70;99.90;;;;;;4933296;29;20213;-72
2022/04/22 05:36:28;;;;;;;24.20;21.03;;;8.00;99.90;;;;;;4933475;29;20651;-70
2022/04/22 05:38:54;;;;;;;22.70;19.60;;;8.40;99.90;;;;;;4933052;29;20209;-71
2022/04/22 05:41:19;;;;;;;29.43;23.57;;;8.70;99.90;;;;;;4933558;29;20240;-71
2022/04/22 05:43:45;;;;;;;35.80;32.40;;;8.90;99.90;;;;;;4933982;29;20558;-70
2022/04/22 05:46:11;;;;;;;28.83;26.17;;;9.20;99.90;;;;;;4932963;29;20182;-70
2022/04/22 05:48:39;;;;;;;25.03;22.60;;;9.50;99.90;;;;;;4933372;29;20186;-70
2022/04/22 05:51:05;;;;;;;28.07;25.17;;;9.90;99.90;;;;;;4932756;29;20580;-70
2022/04/22 05:53:30;;;;;;;30.60;27.67;;;10.30;99.90;;;;;;4933347;29;20566;-70
2022/04/22 05:55:57;;;;;;;31.00;28.53;;;10.80;99.90;;;;;;4933009;29;20182;-72
2022/04/22 05:58:23;;;;;;;35.20;32.20;;;11.20;99.90;;;;;;4932458;29;20210;-71
2022/04/22 06:00:49;;;;;;;22.30;19.47;;;11.40;99.90;;;;;;4932673;29;20206;-71
2022/04/22 06:03:15;;;;;;;27.87;21.23;;;11.70;99.90;;;;;;4933229;29;20185;-71
2022/04/22 06:05:41;;;;;;;22.90;18.50;;;12.10;99.90;;;;;;4932704;29;20207;-71
2022/04/22 06:10:53;;;;;;;23.73;21.40;;;12.80;99.90;;;;;;4932921;29;20185;-71
2022/04/22 06:13:18;;;;;;;21.43;19.33;;;13.00;99.90;;;;;;4932625;29;20230;-71
2022/04/22 06:15:45;;;;;;;22.20;19.90;;;13.30;99.90;;;;;;4934569;29;20222;-71
2022/04/22 06:18:10;;;;;;;25.77;23.20;;;13.40;99.90;;;;;;4932217;29;20242;-71
2022/04/22 06:20:36;;;;;;;34.47;31.50;;;13.40;99.90;;;;;;4931537;29;20202;-71
2022/04/22 06:23:02;;;;;;;32.53;29.67;;;13.60;99.90;;;;;;4931921;29;20270;-71
2022/04/22 06:25:29;;;;;;;28.37;25.67;;;13.70;99.90;;;;;;4931953;29;20585;-71
2022/04/22 06:27:55;;;;;;;22.97;20.87;;;14.10;99.90;;;;;;4931221;29;20179;-71
2022/04/22 06:30:23;;;;;;;21.03;18.43;;;14.20;99.90;;;;;;4930622;29;20220;-71
2022/04/22 06:32:51;;;;;;;20.40;18.37;;;14.30;99.90;;;;;;4934178;29;20191;-71
2022/04/22 06:35:18;;;;;;;18.37;16.27;;;14.20;99.90;;;;;;4933989;29;20678;-71
2022/04/22 06:37:46;;;;;;;19.27;17.13;;;14.10;99.90;;;;;;4934706;29;20202;-71
2022/04/22 06:45:48;;;;;;;20.83;17.00;;;14.90;99.90;;;;;;4916282;29;20203;-72
2022/04/22 06:48:26;;;;;;;18.70;16.57;;;14.80;99.90;;;;;;4914462;29;20207;-72
2022/04/22 06:50:52;;;;;;;20.60;17.20;;;14.80;99.90;;;;;;4920009;29;20666;-72
2022/04/22 06:53:20;;;;;;;18.90;16.87;;;14.50;99.90;;;;;;4934992;29;20178;-72
2022/04/22 06:55:47;;;;;;;23.77;17.40;;;14.00;99.90;;;;;;4934766;29;20249;-71
2022/04/22 06:58:15;;;;;;;19.43;16.50;;;14.00;99.90;;;;;;4934108;29;20676;-72
2022/04/22 07:00:43;;;;;;;19.40;15.93;;;14.70;99.90;;;;;;4934031;29;20246;-72
2022/04/22 07:03:10;;;;;;;18.70;16.70;;;15.40;99.90;;;;;;4933700;29;20247;-71
2022/04/22 07:05:37;;;;;;;18.87;16.93;;;15.60;99.90;;;;;;4934341;29;20206;-72
2022/04/22 07:08:06;;;;;;;19.13;16.93;;;15.80;99.90;;;;;;4933875;29;20583;-72
2022/04/22 07:10:33;;;;;;;18.47;16.40;;;15.90;99.90;;;;;;4934574;29;20587;-72
2022/04/22 07:13:00;;;;;;;18.67;14.87;;;15.60;99.90;;;;;;4934510;29;20178;-72
2022/04/22 07:15:26;;;;;;;18.67;16.77;;;15.20;99.90;;;;;;4931457;29;183350;-72
2022/04/22 07:17:53;;;;;;;20.93;18.73;;;15.00;99.90;;;;;;4936740;29;20281;-71
2022/04/22 07:20:19;;;;;;;20.53;18.53;;;14.90;99.90;;;;;;4935454;29;20280;-71
2022/04/22 07:22:51;;;;;;;16.90;15.13;;;14.60;99.90;;;;;;4935351;29;20183;-71
2022/04/22 07:25:18;;;;;;;16.07;14.37;;;14.20;99.90;;;;;;4935344;29;20687;-71
2022/04/22 07:27:46;;;;;;;18.17;15.27;;;14.40;99.90;;;;;;4934500;29;20345;-71
2022/04/22 07:30:18;;;;;;;17.10;14.70;;;14.30;99.90;;;;;;4934242;29;20186;-71
2022/04/22 07:32:47;;;;;;;15.70;14.20;;;14.30;99.90;;;;;;4934256;29;20277;-71
2022/04/22 07:35:15;;;;;;;17.57;15.50;;;14.70;99.90;;;;;;4933927;29;20582;-71
2022/04/22 07:37:43;;;;;;;18.23;14.87;;;15.20;99.90;;;;;;4933687;29;20190;-70
2022/04/22 07:40:09;;;;;;;17.40;15.30;;;15.10;99.90;;;;;;4933132;29;20250;-70
2022/04/22 07:42:36;;;;;;;17.90;16.10;;;15.00;99.90;;;;;;4934912;29;20186;-71
2022/04/22 07:47:50;;;;;;;18.47;16.50;;;15.10;99.90;;;;;;4935374;29;20182;-71
2022/04/22 07:50:18;;;;;;;14.17;12.73;;;14.50;99.90;;;;;;4934906;29;20187;-71
2022/04/22 07:52:45;;;;;;;15.73;13.93;;;14.50;99.90;;;;;;4934043;29;20297;-71
2022/04/22 07:55:13;;;;;;;17.37;15.23;;;14.40;99.90;;;;;;4935131;29;20210;-71
2022/04/22 07:57:40;;;;;;;17.57;15.77;;;14.50;99.90;;;;;;4935667;29;20708;-70
2022/04/22 08:00:07;;;;;;;18.97;16.97;;;15.00;99.90;;;;;;4931355;29;20273;-70
2022/04/22 08:02:33;;;;;;;16.90;14.43;;;15.60;99.90;;;;;;4933617;29;20602;-71
2022/04/22 08:04:59;;;;;;;16.10;14.40;;;16.00;99.90;;;;;;4934402;29;20202;-70
2022/04/22 08:07:25;;;;;;;14.87;13.33;;;16.30;99.90;;;;;;4933833;29;20241;-71
2022/04/22 08:09:51;;;;;;;15.97;14.27;;;16.10;99.90;;;;;;4934221;29;20241;-70
2022/04/22 08:12:19;;;;;;;15.07;13.57;;;16.00;99.90;;;;;;4934259;29;20281;-71
2022/04/22 08:14:45;;;;;;;14.67;13.17;;;16.20;99.90;;;;;;4934070;29;20221;-71
2022/04/22 08:17:11;;;;;;;11.90;10.23;;;16.20;99.20;;;;;;4932486;29;20229;-70
2022/04/22 08:19:37;;;;;;;14.63;13.13;;;16.40;98.80;;;;;;4933940;29;20656;-71
2022/04/22 08:22:03;;;;;;;15.70;13.40;;;16.10;99.40;;;;;;4932828;29;20182;-71
2022/04/22 08:24:29;;;;;;;16.23;14.20;;;16.50;99.20;;;;;;4932679;29;20195;-71
2022/04/22 08:26:57;;;;;;;16.80;15.00;;;16.80;98.00;;;;;;4932394;29;20183;-70
2022/04/22 08:29:23;;;;;;;16.70;15.20;;;17.20;96.90;;;;;;4932544;29;20230;-72
2022/04/22 08:31:52;;;;;;;17.83;16.23;;;17.00;97.00;;;;;;4934049;29;20666;-71
2022/04/22 08:34:19;;;;;;;18.67;16.97;;;17.20;96.90;;;;;;4934002;29;20214;-71
2022/04/22 08:36:47;;;;;;;17.40;16.00;;;17.10;96.00;;;;;;4929125;29;20665;-72
2022/04/22 08:39:14;;;;;;;15.40;13.90;;;17.50;95.20;;;;;;4918899;29;20210;-71
2022/04/22 08:41:41;;;;;;;16.63;15.03;;;17.40;94.40;;;;;;4914677;29;20550;-72
2022/04/22 08:44:07;;;;;;;16.67;14.97;;;17.30;94.90;;;;;;4928997;29;20203;-72
2022/04/22 08:52:04;;;;;;;14.33;13.10;;;17.20;93.70;;;;;;4933189;29;20213;-72
2022/04/22 08:54:35;;;;;;;14.27;13.13;;;17.30;93.80;;;;;;4931225;29;20261;-71
2022/04/22 08:57:02;;;;;;;16.57;13.83;;;17.40;93.30;;;;;;4931879;29;20194;-71
2022/04/22 08:59:28;;;;;;;15.93;14.53;;;17.60;93.50;;;;;;4934130;29;20210;-71
2022/04/22 09:01:57;;;;;;;16.70;14.83;;;17.50;93.30;;;;;;4933261;29;20186;-71
2022/04/22 09:04:23;;;;;;;14.03;12.73;;;17.70;92.70;;;;;;4932549;29;20692;-71
2022/04/22 09:06:50;;;;;;;14.40;13.30;;;17.90;91.70;;;;;;4933992;29;20186;-71
2022/04/22 09:09:18;;;;;;;16.67;14.10;;;17.80;91.50;;;;;;4933101;29;20609;-71
2022/04/22 09:11:44;;;;;;;16.70;15.10;;;17.90;91.60;;;;;;4932804;29;20186;-71
2022/04/22 09:17:01;;;;;;;13.97;12.70;;;17.80;91.50;;;;;;4913114;29;20217;-75
2022/04/22 09:19:34;;;;;;;15.53;14.13;;;17.80;91.10;;;;;;4921876;29;20275;-75
2022/04/22 09:22:01;;;;;;;14.30;13.13;;;18.10;91.00;;;;;;4917427;29;20188;-74
2022/04/22 09:24:27;;;;;;;16.50;15.00;;;18.30;90.60;;;;;;4898947;29;20223;-74
2022/04/22 09:27:08;;;;;;;16.97;15.40;;;18.40;89.20;;;;;;4894758;29;20219;-73
2022/04/22 09:29:43;;;;;;;17.30;15.97;;;18.50;89.10;;;;;;4894029;29;20183;-74
2022/04/22 09:32:10;;;;;;;12.77;11.77;;;19.00;86.30;;;;;;4904302;29;20561;-74
2022/04/22 09:34:39;;;;;;;12.80;11.70;;;19.10;83.80;;;;;;4917115;29;20584;-74
2022/04/22 09:42:56;;;;;;;14.27;13.00;;;18.90;85.50;;;;;;4910635;29;20647;-75
2022/04/22 09:45:34;;;;;;;14.63;13.40;;;18.80;86.80;;;;;;4913563;29;20675;-72
2022/04/22 09:48:00;;;;;;;11.80;10.70;;;19.00;85.20;;;;;;4913700;29;20194;-73
2022/04/22 09:50:54;;;;;;;13.10;11.93;;;19.10;83.30;;;;;;4914281;29;20559;-73
2022/04/22 09:53:33;;;;;;;11.83;10.93;;;19.40;83.20;;;;;;4893017;29;20254;-74
2022/04/22 09:56:09;;;;;;;13.40;12.27;;;20.00;81.40;;;;;;4913839;29;20837;-73
2022/04/22 09:58:36;;;;;;;13.77;12.67;;;20.30;80.70;;;;;;4913443;29;20686;-74
2022/04/22 10:01:05;;;;;;;14.17;12.97;;;21.00;79.30;;;;;;4913245;29;20670;-74
2022/04/22 10:03:36;;;;;;;11.60;10.45;;;21.20;78.00;;;;;;4912797;29;20282;-75
2022/04/22 10:06:03;;;;;;;10.55;9.63;;;21.60;75.80;;;;;;4913690;29;20752;-75
2022/04/22 10:08:36;;;;;;;11.38;10.38;;;22.10;73.00;;;;;;4917180;29;20187;-75
2022/04/22 10:11:07;;;;;;;10.82;9.93;;;21.80;73.00;;;;;;4915042;29;20188;-73
2022/04/22 10:13:41;;;;;;;13.25;12.05;;;21.80;72.80;;;;;;4916022;29;20194;-75
2022/04/22 10:16:11;;;;;;;11.73;10.57;;;21.50;71.60;;;;;;4914041;29;20215;-74
2022/04/22 10:18:42;;;;;;;11.43;10.32;;;21.10;72.60;;;;;;4898281;29;20188;-74
2022/04/22 10:21:08;;;;;;;13.02;11.70;;;21.30;72.40;;;;;;4897212;29;20274;-74
2022/04/22 10:23:36;;;;;;;11.82;10.82;;;21.50;71.00;;;;;;4913581;29;20191;-73
2022/04/22 10:26:05;;;;;;;11.73;10.73;;;22.30;69.10;;;;;;4917491;29;20572;-75
2022/04/22 10:28:31;;;;;;;11.55;10.55;;;22.10;68.50;;;;;;4925038;29;20215;-74
2022/04/22 10:31:01;;;;;;;11.43;10.40;;;22.40;70.10;;;;;;4930797;29;20192;-74
2022/04/22 10:33:37;;;;;;;13.18;11.98;;;22.60;66.50;;;;;;4917038;29;20179;-74
2022/04/22 10:36:05;;;;;;;11.80;10.63;;;22.90;69.30;;;;;;4917111;29;20258;-75
2022/04/22 10:38:39;;;;;;;11.75;10.52;;;23.50;67.50;;;;;;4917035;29;20194;-74
2022/04/22 10:41:19;;;;;;;11.88;10.88;;;23.60;61.70;;;;;;4917342;29;20182;-74
2022/04/22 10:47:13;;;;;;;11.82;10.77;;;22.70;64.00;;;;;;4896376;29;20788;-74
2022/04/22 10:49:47;;;;;;;11.68;10.52;;;23.20;63.90;;;;;;4898645;29;20195;-74
2022/04/22 10:52:18;;;;;;;14.68;13.25;;;23.60;63.20;;;;;;4912459;29;20267;-74
2022/04/22 10:54:52;;;;;;;18.10;13.80;;;24.20;61.70;;;;;;4924225;29;20210;-74
2022/04/22 10:57:23;;;;;;;12.98;11.68;;;24.80;60.90;;;;;;4917180;29;20622;-75
2022/04/22 11:00:07;;;;;;;10.60;9.50;;;25.80;58.00;;;;;;4915252;29;20562;-75
2022/04/22 11:02:35;;;;;;;11.90;10.85;;;26.60;54.50;;;;;;4905265;29;20188;-74
2022/04/22 11:07:50;;;;;;;11.73;10.63;;;24.30;57.50;;;;;;4912223;29;20194;-74
2022/04/22 11:10:20;;;;;;;12.57;11.48;;;23.90;57.80;;;;;;4916508;29;20187;-75
2022/04/22 11:12:57;;;;;;;12.35;11.15;;;23.90;58.80;;;;;;4914609;29;20274;-75
2022/04/22 11:15:50;;;;;;;11.63;10.63;;;24.00;58.50;;;;;;4915739;29;20572;-74
2022/04/22 11:18:17;;;;;;;10.45;9.48;;;24.70;57.50;;;;;;4914414;29;20703;-76
2022/04/22 11:20:43;;;;;;;10.95;10.05;;;24.90;54.80;;;;;;4916305;29;20571;-75
2022/04/22 11:23:15;;;;;;;11.73;10.68;;;24.80;55.10;;;;;;4902228;29;20207;-75
2022/04/22 11:25:46;;;;;;;13.02;11.98;;;25.30;54.00;;;;;;4913075;29;20581;-75
2022/04/22 11:28:13;;;;;;;14.07;12.95;;;25.20;53.00;;;;;;4898897;29;20203;-73
2022/04/22 11:30:40;;;;;;;11.52;10.52;;;25.10;52.70;;;;;;4916283;29;20191;-73
2022/04/22 11:33:54;;;;;;;15.80;14.63;;;25.10;54.10;;;;;;4914312;29;20183;-73
2022/04/22 11:36:21;;;;;;;12.63;11.68;;;25.40;52.60;;;;;;4899304;29;20271;-73
2022/04/22 11:38:50;;;;;;;10.35;9.65;;;25.70;53.20;;;;;;4896348;29;20680;-73
2022/04/22 11:41:16;;;;;;;11.50;10.60;;;24.80;53.00;;;;;;4895158;29;20226;-74
2022/04/22 11:43:43;;;;;;;10.75;9.85;;;24.10;53.60;;;;;;4894196;29;20184;-73
2022/04/22 11:46:12;;;;;;;10.23;9.23;;;24.40;53.70;;;;;;4911875;29;20214;-72
2022/04/22 11:48:45;;;;;;;10.32;9.27;;;24.50;53.40;;;;;;4914105;29;20265;-71
2022/04/22 11:51:12;;;;;;;11.38;10.38;;;24.70;53.60;;;;;;4915598;29;20180;-72
2022/04/22 11:53:48;;;;;;;12.77;11.68;;;25.10;52.20;;;;;;4915629;29;20238;-70
2022/04/22 11:56:22;;;;;;;14.43;10.73;;;25.20;52.30;;;;;;4901137;29;20227;-72
2022/04/22 11:58:56;;;;;;;17.38;16.00;;;26.10;51.70;;;;;;4894947;29;20215;-71
2022/04/22 12:06:57;;;;;;;8.48;7.88;;;24.30;51.70;;;;;;4907226;29;20183;-72
2022/04/22 12:09:22;;;;;;;10.90;9.90;;;23.70;53.60;;;;;;4906612;29;20218;-72
2022/04/22 12:11:50;;;;;;;10.93;9.30;;;23.90;53.50;;;;;;4916547;29;20198;-72
2022/04/22 12:14:24;;;;;;;10.43;8.98;;;23.80;52.60;;;;;;4933088;29;20182;-72
2022/04/22 12:16:58;;;;;;;10.38;9.48;;;22.90;54.50;;;;;;4911388;29;20691;-70
2022/04/22 12:19:26;;;;;;;10.30;9.40;;;23.60;53.30;;;;;;4908159;29;20211;-73
2022/04/22 12:21:53;;;;;;;10.07;9.18;;;23.90;52.90;;;;;;4896980;29;20195;-72
2022/04/22 12:24:21;;;;;;;8.82;8.02;;;23.60;53.40;;;;;;4910502;29;20283;-71
2022/04/22 12:26:47;;;;;;;10.32;9.32;;;23.80;53.60;;;;;;4926308;29;20183;-73
2022/04/22 12:29:18;;;;;;;9.48;8.57;;;22.90;55.20;;;;;;4900014;29;20196;-72
2022/04/22 12:31:49;;;;;;;11.52;10.45;;;23.60;55.20;;;;;;4896882;29;20214;-72
2022/04/22 12:34:34;;;;;;;9.73;8.93;;;24.30;53.70;;;;;;4895590;29;20196;-71
2022/04/22 12:37:02;;;;;;;13.50;12.35;;;25.70;51.50;;;;;;4899066;29;20794;-71
2022/04/22 12:39:40;;;;;;;14.43;13.32;;;25.50;50.30;;;;;;4914583;29;21142;-73
2022/04/22 12:42:26;;;;;;;11.45;10.57;;;24.60;51.20;;;;;;4913452;29;20187;-73
2022/04/22 12:53:44;;;;;;;13.05;11.98;;;26.50;48.70;;;;;;4914779;29;20179;-70
2022/04/22 12:56:10;;;;;;;10.98;9.90;;;28.40;46.30;;;;;;4913606;29;20226;-70
2022/04/22 12:58:50;;;;;;;11.18;10.20;;;28.40;44.90;;;;;;4913662;29;20214;-71
2022/04/22 13:01:31;;;;;;;18.42;17.02;;;26.20;46.60;;;;;;4914220;29;20187;-71
2022/04/22 13:03:57;;;;;;;17.88;16.58;;;24.50;50.30;;;;;;4915543;29;20278;-71
2022/04/22 13:06:43;;;;;;;16.48;15.00;;;24.30;51.70;;;;;;4915941;29;20296;-71
2022/04/22 13:09:11;;;;;;;11.80;10.75;;;23.60;51.90;;;;;;4915203;29;20238;-71
2022/04/22 13:11:37;;;;;;;12.68;11.43;;;23.30;52.60;;;;;;4915193;29;20183;-71
2022/04/22 13:14:04;;;;;;;13.65;12.40;;;24.10;51.80;;;;;;4914774;29;20242;-71
2022/04/22 13:16:30;;;;;;;20.30;18.70;;;25.20;50.90;;;;;;4914463;29;20229;-71
2022/04/22 13:18:57;;;;;;;16.52;15.18;;;26.80;48.30;;;;;;4894436;29;20223;-72
2022/04/22 13:21:23;;;;;;;16.13;15.02;;;27.50;46.20;;;;;;4896237;29;20179;-73
2022/04/22 13:23:50;;;;;;;20.95;19.38;;;26.50;46.20;;;;;;4896041;29;20218;-69
2022/04/22 13:26:20;;;;;;;21.85;20.45;;;24.60;49.40;;;;;;4895736;29;20259;-70
2022/04/22 13:28:46;;;;;;;21.15;19.75;;;24.00;50.40;;;;;;4911555;29;20186;-69
2022/04/22 13:31:12;;;;;;;20.55;19.25;;;25.60;48.70;;;;;;4912640;29;20644;-73
2022/04/22 13:33:39;;;;;;;13.52;12.25;;;27.00;46.80;;;;;;4913305;29;20234;-73
2022/04/22 13:36:07;;;;;;;10.40;9.50;;;27.10;45.00;;;;;;4913147;29;20210;-74
2022/04/22 13:38:34;;;;;;;11.43;10.43;;;27.70;44.60;;;;;;4896557;29;20553;-74
2022/04/22 13:41:01;;;;;;;11.93;10.93;;;28.80;41.80;;;;;;4897946;29;20222;-73
2022/04/22 13:43:30;;;;;;;12.75;11.75;;;29.00;41.70;;;;;;4897982;29;20188;-73
2022/04/22 13:54:15;;;;;;;11.50;10.70;;;28.50;40.60;;;;;;4898644;29;20180;-73
2022/04/22 13:56:41;;;;;;;12.10;11.10;;;28.10;41.60;;;;;;4907560;29;20522;-73
2022/04/22 13:59:07;;;;;;;11.60;10.60;;;28.50;40.30;;;;;;4916588;29;20214;-73
2022/04/22 14:01:32;;;;;;;11.27;10.38;;;28.40;39.60;;;;;;4917079;29;20194;-74
2022/04/22 14:03:58;;;;;;;11.98;10.80;;;27.90;40.90;;;;;;4918844;29;20187;-74
2022/04/22 14:06:24;;;;;;;11.13;10.02;;;28.00;40.50;;;;;;4910084;29;20196;-73
2022/04/22 14:08:50;;;;;;;13.63;12.75;;;27.20;42.00;;;;;;4898661;29;20649;-73
2022/04/22 14:11:16;;;;;;;15.93;14.90;;;26.10;42.60;;;;;;4897828;29;20232;-73
2022/04/22 14:13:43;;;;;;;14.85;13.77;;;25.60;42.50;;;;;;4899176;29;20187;-74
2022/04/22 14:16:09;;;;;;;15.13;13.93;;;25.70;43.20;;;;;;4904500;29;20218;-73
2022/04/22 14:18:36;;;;;;;13.05;11.82;;;25.70;42.90;;;;;;4915910;29;20182;-73
2022/04/22 14:21:02;;;;;;;13.23;12.10;;;26.20;44.20;;;;;;4917846;29;20175;-73
2022/04/22 14:23:29;;;;;;;11.60;10.80;;;27.10;42.30;;;;;;4917765;29;20198;-73
2022/04/22 14:25:56;;;;;;;11.13;10.23;;;28.20;41.00;;;;;;4914407;29;20192;-73
2022/04/22 14:28:26;;;;;;;11.18;10.23;;;28.60;38.90;;;;;;4897323;29;20190;-73
2022/04/22 14:30:53;;;;;;;8.45;7.82;;;28.40;38.90;;;;;;4899078;29;20192;-73
2022/04/22 14:33:20;;;;;;;8.20;7.50;;;29.20;37.70;;;;;;4898900;29;20187;-73
2022/04/22 14:35:48;;;;;;;7.97;7.30;;;29.60;37.50;;;;;;4907735;29;20207;-73
2022/04/22 14:38:14;;;;;;;8.35;7.65;;;29.80;37.20;;;;;;4898206;29;20207;-73
2022/04/22 14:40:40;;;;;;;9.52;8.60;;;28.90;38.10;;;;;;4898636;29;20700;-73
2022/04/22 14:43:09;;;;;;;10.27;9.57;;;27.40;40.30;;;;;;4897702;29;20184;-73
2022/04/22 14:45:36;;;;;;;10.88;10.18;;;26.60;40.90;;;;;;4907732;29;20213;-73
2022/04/22 14:48:02;;;;;;;14.25;13.00;;;25.80;42.30;;;;;;4898553;29;20699;-73
2022/04/22 14:50:28;;;;;;;13.70;12.45;;;24.60;43.50;;;;;;4897223;29;20192;-73
2022/04/22 14:52:55;;;;;;;14.02;13.07;;;24.00;45.60;;;;;;4897837;29;20205;-73
2022/04/22 14:55:22;;;;;;;11.40;10.63;;;25.60;43.90;;;;;;4898592;29;20218;-73
2022/04/22 14:57:48;;;;;;;12.50;11.60;;;27.00;41.90;;;;;;4907452;29;20735;-73
2022/04/22 15:00:14;;;;;;;13.13;12.02;;;27.70;40.20;;;;;;4917258;29;20746;-72
2022/04/22 15:02:40;;;;;;;9.60;8.90;;;27.20;40.70;;;;;;4917561;29;20175;-73
2022/04/22 15:05:07;;;;;;;9.32;8.63;;;27.60;40.60;;;;;;4916213;29;20215;-73
2022/04/22 15:07:33;;;;;;;7.68;7.18;;;28.20;39.40;;;;;;4902536;29;20573;-72
2022/04/22 15:09:59;;;;;;;8.52;7.15;;;29.00;39.40;;;;;;4899187;29;20219;-74
2022/04/22 15:12:28;;;;;;;8.18;7.38;;;29.20;38.30;;;;;;4897711;29;20180;-72
2022/04/22 15:14:54;;;;;;;8.98;8.35;;;28.80;38.80;;;;;;4924817;23;20224;-69
2022/04/22 15:25:35;;;;;;;12.25;11.35;;;23.70;45.40;;;;;;4927608;29;20255;-69
2022/04/22 15:28:01;;;;;;;14.95;13.82;;;23.00;47.90;;;;;;4916882;29;20183;-69
2022/04/22 15:31:08;;;;;;;14.82;13.82;;;22.70;48.50;;;;;;4918817;29;20191;-69
2022/04/22 15:33:35;;;;;;;17.45;16.40;;;22.30;49.00;;;;;;4917176;29;20219;-68
2022/04/22 15:36:04;;;;;;;18.02;16.83;;;22.10;49.70;;;;;;4916295;29;20624;-70
2022/04/22 15:38:34;;;;;;;17.30;16.23;;;21.90;50.20;;;;;;4916339;29;20785;-68
2022/04/22 15:41:00;;;;;;;15.63;14.43;;;21.80;50.30;;;;;;4917426;29;20263;-70
2022/04/22 15:43:26;;;;;;;13.60;12.68;;;21.70;50.80;;;;;;4916636;29;20183;-67
2022/04/22 15:45:53;;;;;;;12.82;11.82;;;21.50;50.10;;;;;;4915446;29;20266;-68
2022/04/22 15:48:18;;;;;;;12.70;11.82;;;21.30;50.10;;;;;;4916296;29;20222;-67
2022/04/22 15:50:44;;;;;;;15.63;14.63;;;22.40;49.30;;;;;;4916378;29;20643;-68
2022/04/22 15:53:10;;;;;;;12.40;11.43;;;24.50;46.00;;;;;;4916299;29;20191;-68
2022/04/22 15:55:35;;;;;;;11.27;10.48;;;26.10;42.30;;;;;;4916002;29;20297;-68
2022/04/22 15:58:01;;;;;;;8.98;8.30;;;26.50;40.90;;;;;;4914393;29;20434;-69
2022/04/22 16:00:27;;;;;;;9.77;8.88;;;26.60;40.70;;;;;;4915644;29;20758;-70
2022/04/22 16:02:53;;;;;;;8.27;7.68;;;27.30;39.50;;;;;;4915162;29;20183;-69
2022/04/22 16:05:19;;;;;;;8.05;7.47;;;27.70;38.50;;;;;;4915092;29;20226;-69
2022/04/22 16:07:44;;;;;;;7.55;6.97;;;27.80;38.80;;;;;;4914220;29;20183;-69
2022/04/22 16:10:10;;;;;;;10.27;9.38;;;27.50;39.30;;;;;;4914878;29;20565;-69
2022/04/22 16:15:21;;;;;;;14.98;14.00;;;26.00;42.10;;;;;;4915647;29;20229;-69
2022/04/22 16:17:49;;;;;;;12.80;11.85;;;24.80;45.20;;;;;;4908438;29;20313;-69
2022/04/22 16:20:15;;;;;;;16.02;15.02;;;24.50;46.10;;;;;;4911335;29;20215;-69
2022/04/22 16:22:45;;;;;;;16.83;15.45;;;23.90;47.40;;;;;;4915213;29;20175;-69
2022/04/22 16:25:11;;;;;;;14.43;13.55;;;23.80;47.80;;;;;;4915792;29;20199;-69
2022/04/22 16:27:37;;;;;;;13.35;12.57;;;24.10;47.20;;;;;;4913698;29;20190;-69
2022/04/22 16:30:05;;;;;;;16.35;15.00;;;24.10;47.50;;;;;;4915409;29;20187;-69
2022/04/22 16:32:31;;;;;;;15.23;14.23;;;23.40;48.20;;;;;;4915534;29;20182;-69
2022/04/22 16:34:58;;;;;;;16.10;15.00;;;22.70;49.50;;;;;;4915414;29;20715;-69
2022/04/22 16:37:23;;;;;;;12.77;11.88;;;22.20;50.90;;;;;;4914759;29;20242;-69
2022/04/22 16:39:49;;;;;;;12.30;11.50;;;22.10;51.30;;;;;;4915374;29;20671;-69
2022/04/22 16:42:15;;;;;;;12.20;11.27;;;22.10;51.50;;;;;;4915397;29;20187;-70
2022/04/22 16:44:41;;;;;;;9.55;7.50;;;21.60;51.50;;;;;;4914200;29;20183;-69
2022/04/22 16:47:07;;;;;;;8.52;7.72;;;21.00;53.10;;;;;;4914757;29;20202;-69
2022/04/22 16:49:33;;;;;;;7.90;7.20;;;20.60;54.50;;;;;;4915193;29;20193;-69
2022/04/22 16:51:59;;;;;;;9.00;8.20;;;20.20;55.40;;;;;;4915761;29;20275;-70
2022/04/22 16:54:25;;;;;;;8.93;7.85;;;20.00;55.70;;;;;;4915406;29;20225;-69
2022/04/22 16:56:50;;;;;;;7.95;7.18;;;19.90;56.50;;;;;;4913966;29;20211;-70
2022/04/22 16:59:17;;;;;;;9.77;8.77;;;20.00;56.20;;;;;;4914952;29;20210;-69